Sand Spring Valley, Nevada Weather observations

Data are for 10 minute period ending at time listed.
 Day   Time   Solar   Ave.   Ave.  Ave.  Vector  Max.   Baro.   Total    
  of    of     Rad.   Air    Rel.  Wind   Wind   Wind  Press.  Precip.   
Year   Day            Temp.  Hum.  Speed  Dir.   Gust                    
2015   (PST)  Kw/m2    F      %     mph   deg.    mph    mb.     in.     
-------------------------------------------------------------------------
 239   11:00   0.00   84.3    32    2.2   298     4.2   858.4    0.00 
 239   11:10   0.00   85.6    30    1.3    38     3.4   858.2    0.00 
 239   11:20   0.00   86.3    28    2.2   335     5.5   857.9    0.00 
 239   11:30   0.00   87.5    25    1.3   145     3.9   857.7    0.00 
 239   11:40   0.00   88.3    24    1.7   310     5.2   857.6    0.00 
 239   11:50   0.00   85.0    32    1.6    88     5.3   857.4    0.00 
 239   12:00   0.00   83.2    36    2.3   119     3.6   857.4    0.00 
 239   12:10   0.00   86.2    30    1.1   138     3.4   857.3    0.00 
 239   12:20   0.00   89.4    23    2.4   197     6.7   857.2    0.00 
 239   12:30   0.00   89.1    26    7.0   184    13.6   857.1    0.00 
 239   12:40   0.00   86.3    27    4.9   151    13.0   857.1    0.00 
 239   12:50   0.00   85.8    26    8.5   178    14.0   857.0    0.00 
 239   13:00   0.00   85.4    29    8.6   203    14.5   857.0    0.00 
 239   13:10   0.00   82.3    34    8.2   205    12.2   857.0    0.00 
 239   13:20   0.00   84.8    34    9.5   214    14.9   857.0    0.00 
 239   13:30   0.00   85.7    29    6.4   213    11.0   856.9    0.00 
 239   13:40   0.00   87.2    25    4.6   228    10.2   856.8    0.00 
 239   13:50   0.00   86.5    25    4.5   290    10.3   856.9    0.00 
 239   14:00   0.00   86.8    22   12.9   353    22.1   856.8    0.00 
 239   14:10   0.00   85.0    21   14.4    16    21.5   856.6    0.00 
 239   14:20   0.00   83.2    25   12.7    28    19.7   856.6    0.00 
 239   14:30   0.00   82.7    30   12.3    40    19.7   856.5    0.00 
 239   14:40   0.00   83.2    30   10.2    54    16.4   856.4    0.00 
 239   14:50   0.00   83.0    30    9.8    70    17.0   856.4    0.00 
 239   15:00   0.00   83.1    29    8.3    78    18.0   856.4    0.00 
 239   15:10   0.00   83.5    27    8.4    66    17.5   856.4    0.00 
 239   15:20   0.00   82.4    27    7.6    67    12.4   856.5    0.00 
 239   15:30   0.00   82.4    26    7.8    63    15.9   856.6    0.00 
 239   15:40   0.00   82.7    26    7.7    49    13.2   856.5    0.00 
 239   15:50   0.00   83.5    24   11.2    30    18.6   856.4    0.00 
 239   16:00   0.00   83.4    24   11.4    31    17.5   856.1    0.00 
 239   16:10   0.00   81.9    25    7.6    36    13.7   856.0    0.00 
 239   16:20   0.00   82.6    24    7.7    31    13.4   855.9    0.00 
 239   16:30   0.00   82.7    26    4.8    44     9.7   855.8    0.00 
 239   16:40   0.00   82.3    26    4.5    54     9.7   855.8    0.00 
 239   16:50   0.00   82.4    25    4.4    44     9.1   855.7    0.00 
 239   17:00   0.00   82.0    25    4.6    46     9.8   855.6    0.00 
 239   17:10   0.00   79.7    27    3.3    43     5.0   855.7    0.00 
 239   17:20   0.00   79.6    27    3.2    23     5.3   855.7    0.00 
 239   17:30   0.00   81.6    25    2.9    22     5.6   855.7    0.00 
 239   17:40   0.00   82.0    24    4.9     9     7.7   855.7    0.00 
 239   17:50   0.00   81.3    24    6.4    12    10.7   855.7    0.00 
 239   18:00   0.00   80.8    25    6.8    18    11.0   855.7    0.00 
 239   18:10   0.00   79.9    25    5.7    20     9.0   855.8    0.00 
 239   18:20   0.00   79.2    26    5.6    19     8.6   855.8    0.00 
 239   18:30   0.00   77.0    30    4.3    31     7.8   855.7    0.00 
 239   18:40   0.00   74.7    35    3.3    30     5.1   855.7    0.00 
 239   18:50   0.00   73.7    40    1.6   340     5.2   855.9    0.00 
 239   19:00   0.00   69.0    48    3.3   160     5.7   856.0    0.00 
 239   19:10   0.00   70.3    48    0.5   159     3.3   856.1    0.00 
 239   19:20   0.00   66.6    61    0.0   159     0.8   856.3    0.00 
 239   19:30   0.00   67.3    54    2.9   355     5.5   856.5    0.00 
 239   19:40   0.00   67.7    56    1.6   340     3.5   856.7    0.00 
 239   19:50   0.00   64.6    63    0.3   275     2.9   856.8    0.00 
 239   20:00   0.00   64.4    62    0.1   280     1.6   857.0    0.00 
 239   20:10   0.00   64.6    61    0.9   282     3.1   857.0    0.00 
 239   20:20   0.00   64.3    61    2.3   158     5.0   857.1    0.00 
 239   20:30   0.00   65.9    48    4.7   165     6.3   857.2    0.00 
 239   20:40   0.00   67.4    45    2.5   163     4.7   857.2    0.00 
 239   20:50   0.00   64.3    57    1.3   172     3.7   857.2    0.00 
 239   21:00   0.00   62.9    56    3.1   182     4.3   857.1    0.00 
 239   21:10   0.00   64.8    52    3.2   184     4.6   857.0    0.00 
 239   21:20   0.00   62.0    63    2.9   200     4.4   857.0    0.00 
 239   21:30   0.00   60.0    68    2.0   203     3.3   856.8    0.00 
 239   21:40   0.00   60.5    67    1.0   203     2.9   856.8    0.00 
 239   21:50   0.00   59.8    65    1.0   208     2.0   856.8    0.00 
 239   22:00   0.00   58.6    67    2.3   230     4.7   856.8    0.00 
 239   22:10   0.00   58.9    65    3.4   247     4.4   856.6    0.00 
 239   22:20   0.00   59.0    65    3.3   238     4.4   856.6    0.00 
 239   22:30   0.00   59.8    63    3.2   278     5.0   856.6    0.00 
 239   22:40   0.00   59.6    63    4.2   247     6.1   856.6    0.00 
 239   22:50   0.00   60.1    61    4.5   247     5.8   856.6    0.00 
 239   23:00   0.00   60.0    62    2.0   259     5.0   856.6    0.00 
 239   23:10   0.00   60.5    60    4.9   204     8.2   856.7    0.00 
 239   23:20   0.00   60.7    61    3.4   217     5.3   856.7    0.00 
 239   23:30   0.00   60.2    61    2.9   277     4.5   856.8    0.00 
 239   23:40   0.00   61.5    56    3.3   276     4.5   856.8    0.00 
 239   23:50   0.00   59.5    64    2.5   209     5.0   856.7    0.00 
 240    0:00   0.00   58.9    64    0.8   205     2.4   856.8    0.00 
 240    0:10   0.00   58.7    66    0.7   200     2.0   856.7    0.00 
 240    0:20   0.00   56.9    72    2.8   162     3.7   856.7    0.00 
 240    0:30   0.00   56.2    66    1.6   172     3.5   856.7    0.00 
 240    0:40   0.00   55.7    70    1.4   175     2.7   856.6    0.00 
 240    0:50   0.00   55.4    71    0.2   175     1.2   856.5    0.00 
 240    1:00   100.00  99999.0   99999  99999.0   99999   99999.0   99999.0   99999.00 
 240    1:10   100.00  99999.0   99999  99999.0   99999   99999.0   99999.0   99999.00 
 240    1:20   100.00  99999.0   99999  99999.0   99999   99999.0   99999.0   99999.00 
 240    1:30   100.00  99999.0   99999  99999.0   99999   99999.0   99999.0   99999.00 
 240    1:40   100.00  99999.0   99999  99999.0   99999   99999.0   99999.0   99999.00 
 240    1:50   100.00  99999.0   99999  99999.0   99999   99999.0   99999.0   99999.00 
 240    2:00   0.00   54.1    74    2.2   214     4.0   856.5    0.00 
 240    2:10   0.00   53.7    76    2.9   196     4.4   856.5    0.00 
 240    2:20   0.00   53.2    76    3.2   194     4.4   856.5    0.00 
 240    2:30   0.00   53.1    78    1.1   195     1.7   856.5    0.00 
 240    2:40   0.00   53.1    78    0.8   195     1.5   856.5    0.00 
 240    2:50   0.00   53.3    78    0.0   195     0.6   856.5    0.00 
 240    3:00   0.00   54.0    73    1.3   209     2.1   856.4    0.00 
 240    3:10   0.00   53.7    73    1.2   210     2.3   856.4    0.00 
 240    3:20   0.00   53.3    75    1.2   210     2.8   856.4    0.00 
 240    3:30   0.00   53.2    76    0.6   210     1.5   856.3    0.00 
 240    3:40   0.00   53.4    76    2.1   213     3.1   856.3    0.00 
 240    3:50   0.00   53.0    76    1.0   248     3.4   856.4    0.00 
 240    4:00   0.00   53.4    74    3.4   271     4.5   856.5    0.00 
 240    4:10   0.00   53.3    74    3.5   267     4.4   856.4    0.00 
 240    4:20   0.00   53.4    75    3.5   272     4.9   856.5    0.00 
 240    4:30   0.00   53.7    74    3.8   274     5.0   856.5    0.00 
 240    4:40   0.00   52.8    76    3.2   294     4.1   856.7    0.00 
 240    4:50   0.00   52.7    75    2.2   301     3.3   856.7    0.00 
 240    5:00   0.00   52.2    76    2.3   294     4.3   856.7    0.00 
 240    5:10   0.00   53.1    73    2.9   266     4.1   856.8    0.00 
 240    5:20   0.00   52.6    76    3.4   271     4.8   856.8    0.00 
 240    5:30   0.00   51.6    80    1.6   259     2.3   856.9    0.00 
 240    5:40   0.00   51.6    80    1.9   273     2.9   857.0    0.00 
 240    5:50   0.00   52.4    79    2.1   260     3.2   857.0    0.00 
 240    6:00   0.00   53.7    78    0.7   262     1.9   857.0    0.00 
 240    6:10   0.00   55.0    77    1.0   282     2.6   857.1    0.00 
 240    6:20   0.00   56.5    76    0.9   282     1.7   857.3    0.00 
 240    6:30   0.00   58.2    71    1.0   294     2.6   857.4    0.00 
 240    6:40   0.00   60.1    59    1.5    34     2.6   857.5    0.00 
 240    6:50   0.00   61.3    56    0.4    46     2.3   857.5    0.00 
 240    7:00   0.00   62.8    54    0.7   147     3.4   857.5    0.00 
 240    7:10   0.00   64.6    51    1.2   173     3.0   857.5    0.00 
 240    7:20   0.00   64.9    58    1.4   205     2.7   857.6    0.00 
 240    7:30   0.00   65.8    58    1.0   219     2.0   857.7    0.00 
 240    7:40   0.00   65.9    52    1.5   300     3.2   857.7    0.00 
 240    7:50   0.00   67.0    49    1.4   311     2.6   857.8    0.00 
 240    8:00   0.00   68.5    47    0.7   312     1.9   857.8    0.00 
 240    8:10   0.00   70.2    44    0.8   313     2.3   857.7    0.00 
 240    8:20   0.00   71.5    43    1.0   326     2.7   857.7    0.00 
 240    8:30   0.00   72.7    40    1.3   329     2.9   857.7    0.00 
 240    8:40   0.00   74.2    34    1.4     6     3.4   857.6    0.00 
 240    8:50   0.00   76.3    35    0.8   139     2.2   857.6    0.00 
 240    9:00   0.00   78.3    35    1.2   136     3.9   857.5    0.00 
 240    9:10   0.00   77.8    38    1.3   129     2.6   857.5    0.00 
 240    9:20   0.00   79.6    36    1.4   116     2.9   857.4    0.00 
 240    9:30   0.00   80.9    32    1.8    62     3.6   857.3    0.00 
 240    9:40   0.00   81.5    27    3.4    32     8.1   857.1    0.00 
 240    9:50   0.00   82.4    26    2.6    31     5.8   856.9    0.00 
 240   10:00   0.00   83.8    26    2.6    26     5.3   856.8    0.00 
 240   10:10   0.00   84.3    31    1.9   327     9.0   856.7    0.00 
 240   10:20   0.00   85.7    27    2.3    29     4.9   856.6    0.00 
 240   10:30   0.00   87.0    27    1.5    79     3.6   856.4    0.00 
 240   10:40   0.00   88.0    26    1.1    72     2.8   856.2    0.00 
 240   10:50   0.00   88.2    26    1.2    74     2.1   856.0    0.00 

Return to Sand Spring Valley graphs page.


Western Regional Climate Center,wrcc@dri.edu